createdAt,value
2018-03-29T00:00:19.877Z,4.33
2018-03-29T00:02:47.363Z,4.30
2018-03-29T00:05:14.885Z,5.30
2018-03-29T00:07:42.451Z,5.00
2018-03-29T00:10:10.734Z,5.03
2018-03-29T00:12:38.321Z,4.97
2018-03-29T00:15:05.760Z,4.83
2018-03-29T00:17:34.119Z,4.70
2018-03-29T00:20:01.687Z,5.13
2018-03-29T00:22:29.208Z,4.83
2018-03-29T00:24:56.708Z,5.43
2018-03-29T00:27:24.254Z,5.33
2018-03-29T00:29:51.783Z,5.83
2018-03-29T00:32:19.371Z,5.37
2018-03-29T00:34:47.619Z,5.40
2018-03-29T00:37:15.111Z,4.30
2018-03-29T00:39:42.618Z,5.07
2018-03-29T00:42:10.134Z,6.03
2018-03-29T00:44:37.940Z,5.83
2018-03-29T00:47:05.457Z,6.80
2018-03-29T00:49:32.959Z,7.00
2018-03-29T00:52:00.451Z,7.03
2018-03-29T00:54:28.386Z,8.23
2018-03-29T00:56:55.896Z,9.03
2018-03-29T00:59:23.399Z,10.10
2018-03-29T01:01:51.326Z,9.43
2018-03-29T01:04:18.751Z,10.00
2018-03-29T01:06:46.584Z,12.43
2018-03-29T01:09:14.043Z,10.87
2018-03-29T01:11:41.614Z,13.20
2018-03-29T01:14:09.681Z,12.93
2018-03-29T01:16:37.167Z,14.40
2018-03-29T01:19:05.348Z,15.47
2018-03-29T01:21:32.806Z,14.00
2018-03-29T01:24:00.330Z,16.73
2018-03-29T01:26:27.870Z,15.57
2018-03-29T01:28:55.385Z,13.63
2018-03-29T01:31:23.282Z,14.47
2018-03-29T01:33:50.805Z,12.93
2018-03-29T01:36:18.361Z,17.40
2018-03-29T01:38:45.971Z,17.67
2018-03-29T01:41:13.426Z,13.23
2018-03-29T01:43:40.924Z,15.17
2018-03-29T01:46:09.178Z,15.80
2018-03-29T01:48:36.747Z,14.80
2018-03-29T01:51:04.214Z,12.70
2018-03-29T01:53:31.736Z,8.53
2018-03-29T01:55:59.238Z,7.70
2018-03-29T01:58:26.798Z,8.63
2018-03-29T02:00:54.331Z,8.50
2018-03-29T02:03:21.741Z,8.60
2018-03-29T02:05:49.267Z,8.40
2018-03-29T02:08:17.061Z,7.00
2018-03-29T02:10:44.564Z,5.73
2018-03-29T02:13:12.782Z,5.20
2018-03-29T02:15:40.315Z,5.30
2018-03-29T02:18:07.796Z,6.10
2018-03-29T02:20:35.341Z,6.20
2018-03-29T02:23:02.850Z,4.90
2018-03-29T02:25:30.327Z,5.10
2018-03-29T02:27:58.716Z,4.93
2018-03-29T02:30:26.213Z,4.50
2018-03-29T02:32:53.705Z,4.80
2018-03-29T02:35:21.249Z,5.10
2018-03-29T02:37:48.903Z,6.67
2018-03-29T02:40:16.372Z,5.17
2018-03-29T02:42:43.909Z,6.77
2018-03-29T02:45:12.423Z,8.23
2018-03-29T02:47:39.996Z,8.60
2018-03-29T02:50:08.456Z,9.20
2018-03-29T02:52:36.638Z,9.27
2018-03-29T02:55:05.529Z,10.67
2018-03-29T02:57:34.009Z,10.10
2018-03-29T03:00:01.461Z,12.83
2018-03-29T03:02:28.981Z,12.17
2018-03-29T03:04:56.477Z,15.10
2018-03-29T03:07:24.011Z,16.20
2018-03-29T03:09:52.030Z,14.00
2018-03-29T03:12:20.423Z,16.50
2018-03-29T03:14:47.907Z,17.40
2018-03-29T03:17:16.182Z,15.57
2018-03-29T03:19:43.680Z,14.90
2018-03-29T03:22:11.172Z,18.10
2018-03-29T03:24:39.522Z,19.33
2018-03-29T03:27:07.069Z,19.23
2018-03-29T03:29:34.613Z,22.70
2018-03-29T03:32:02.088Z,25.87
2018-03-29T03:34:29.571Z,23.13
2018-03-29T03:36:57.083Z,25.87
2018-03-29T03:39:25.386Z,19.27
2018-03-29T03:41:52.855Z,22.90
2018-03-29T03:44:20.416Z,21.87
2018-03-29T03:46:48.739Z,23.90
2018-03-29T03:49:16.260Z,21.77
2018-03-29T03:51:43.840Z,21.67
2018-03-29T03:54:11.346Z,17.90
2018-03-29T03:56:38.809Z,17.93
2018-03-29T03:59:07.115Z,19.57
2018-03-29T04:01:35.422Z,15.10
2018-03-29T04:04:02.954Z,16.00
2018-03-29T04:06:30.494Z,17.90
2018-03-29T04:08:58.207Z,13.53
2018-03-29T04:11:25.691Z,13.53
2018-03-29T04:13:53.546Z,16.57
2018-03-29T04:16:21.256Z,17.70
2018-03-29T04:18:48.799Z,18.20
2018-03-29T04:21:16.337Z,21.37
2018-03-29T04:23:44.038Z,20.47
2018-03-29T04:26:11.548Z,20.47
2018-03-29T04:28:39.033Z,23.03
2018-03-29T04:31:06.580Z,24.83
2018-03-29T04:33:35.253Z,24.03
2018-03-29T04:36:03.484Z,27.33
2018-03-29T04:38:31.081Z,22.40
2018-03-29T04:40:58.600Z,25.10
2018-03-29T04:43:26.098Z,22.37
2018-03-29T04:45:53.654Z,22.93
2018-03-29T04:48:22.089Z,26.60
2018-03-29T04:50:49.624Z,20.80
2018-03-29T04:53:17.139Z,19.70
2018-03-29T04:55:45.488Z,21.57
2018-03-29T04:58:13.075Z,21.90
2018-03-29T05:00:41.380Z,23.43
2018-03-29T05:03:08.986Z,34.13
2018-03-29T05:05:36.499Z,23.57
2018-03-29T05:08:03.948Z,27.60
2018-03-29T05:10:31.508Z,25.70
2018-03-29T05:12:59.096Z,26.17
2018-03-29T05:15:27.326Z,29.27
2018-03-29T05:17:54.892Z,23.37
2018-03-29T05:20:23.176Z,27.87
2018-03-29T05:22:51.547Z,36.00
2018-03-29T05:25:19.824Z,31.67
2018-03-29T05:27:47.642Z,32.73
2018-03-29T05:30:15.216Z,33.03
2018-03-29T05:32:42.711Z,27.27
2018-03-29T05:35:10.401Z,33.93
2018-03-29T05:37:39.351Z,33.20
2018-03-29T05:40:06.873Z,35.83
2018-03-29T05:42:34.339Z,49.30
2018-03-29T05:45:02.560Z,32.33
2018-03-29T05:47:30.015Z,33.57
2018-03-29T05:49:57.600Z,34.80
2018-03-29T05:52:25.139Z,37.80
2018-03-29T05:54:52.768Z,40.50
2018-03-29T05:57:20.259Z,34.27
2018-03-29T05:59:47.764Z,32.97
2018-03-29T06:02:15.241Z,34.50
2018-03-29T06:04:44.463Z,33.53
2018-03-29T06:07:11.963Z,32.60
2018-03-29T06:09:39.432Z,30.10
2018-03-29T06:12:07.028Z,32.47
2018-03-29T06:14:34.473Z,31.80
2018-03-29T06:17:02.232Z,38.67
2018-03-29T06:19:30.127Z,37.83
2018-03-29T06:21:57.605Z,36.70
2018-03-29T06:24:25.874Z,35.03
2018-03-29T06:26:54.961Z,34.60
2018-03-29T06:29:25.607Z,39.63
2018-03-29T06:31:53.361Z,35.10
2018-03-29T06:34:21.631Z,34.03
2018-03-29T06:36:49.366Z,35.40
2018-03-29T06:39:16.898Z,29.80
2018-03-29T06:41:45.431Z,34.47
2018-03-29T06:44:13.817Z,35.70
2018-03-29T06:46:41.344Z,29.63
2018-03-29T06:49:09.042Z,30.10
2018-03-29T06:51:36.571Z,31.10
2018-03-29T06:54:04.630Z,32.20
2018-03-29T06:56:32.169Z,34.47
2018-03-29T06:58:59.852Z,30.70
2018-03-29T07:01:27.543Z,36.13
2018-03-29T07:03:55.119Z,32.70
2018-03-29T07:06:22.831Z,33.10
2018-03-29T07:08:50.542Z,35.40
2018-03-29T07:11:17.987Z,30.80
2018-03-29T07:13:45.830Z,32.20
2018-03-29T07:16:14.336Z,36.00
2018-03-29T07:18:41.917Z,39.83
2018-03-29T07:21:09.430Z,36.70
2018-03-29T07:23:37.071Z,35.73
2018-03-29T07:26:05.154Z,36.93
2018-03-29T07:28:32.702Z,39.60
2018-03-29T07:31:02.592Z,36.80
2018-03-29T07:33:30.106Z,36.17
2018-03-29T07:35:57.645Z,34.60
2018-03-29T07:38:25.156Z,37.03
2018-03-29T07:40:52.625Z,39.10
2018-03-29T07:43:20.575Z,34.67
2018-03-29T07:45:48.642Z,35.07
2018-03-29T07:48:16.899Z,38.23
2018-03-29T07:50:44.652Z,42.33
2018-03-29T07:53:13.160Z,40.87
2018-03-29T07:55:40.711Z,39.07
2018-03-29T07:58:09.027Z,41.07
2018-03-29T08:00:36.563Z,37.70
2018-03-29T08:03:04.070Z,34.83
2018-03-29T08:05:31.688Z,43.87
2018-03-29T08:08:00.103Z,40.87
2018-03-29T08:10:28.345Z,38.07
2018-03-29T08:12:56.002Z,42.40
2018-03-29T08:15:23.563Z,37.77
2018-03-29T08:17:51.260Z,39.97
2018-03-29T08:20:18.787Z,38.57
2018-03-29T08:22:46.289Z,37.47
2018-03-29T08:25:13.769Z,40.70
2018-03-29T08:27:41.280Z,46.00
2018-03-29T08:30:08.802Z,39.47
2018-03-29T08:32:36.426Z,42.83
2018-03-29T08:35:04.974Z,43.13
2018-03-29T08:37:32.611Z,42.40
2018-03-29T08:40:01.265Z,44.97
2018-03-29T08:42:28.777Z,42.73
2018-03-29T08:44:56.960Z,46.03
2018-03-29T08:47:25.039Z,43.27
2018-03-29T08:49:52.620Z,42.70
2018-03-29T08:52:20.187Z,45.60
2018-03-29T08:54:49.897Z,51.50
2018-03-29T08:57:17.434Z,41.87
2018-03-29T08:59:44.998Z,40.53
2018-03-29T09:02:13.458Z,47.70
2018-03-29T09:04:41.357Z,52.63
2018-03-29T09:07:09.637Z,43.97
2018-03-29T09:09:37.128Z,50.50
2018-03-29T09:12:04.667Z,51.40
2018-03-29T09:14:32.547Z,46.83
2018-03-29T09:17:00.050Z,52.20
2018-03-29T09:19:28.541Z,47.30
2018-03-29T09:21:56.830Z,48.53
2018-03-29T09:24:25.362Z,46.13
2018-03-29T09:26:52.862Z,38.07
2018-03-29T09:29:20.384Z,45.17
2018-03-29T09:31:47.852Z,37.13
2018-03-29T09:34:15.423Z,27.60
2018-03-29T09:36:43.224Z,24.53
2018-03-29T09:39:10.775Z,24.23
2018-03-29T09:41:38.288Z,22.03
2018-03-29T09:44:05.793Z,21.90
2018-03-29T09:46:33.551Z,26.03
2018-03-29T09:49:01.834Z,25.60
2018-03-29T09:51:29.317Z,22.67
2018-03-29T09:53:56.858Z,26.30
2018-03-29T09:56:24.386Z,24.50
2018-03-29T09:58:52.590Z,22.97
2018-03-29T10:01:20.101Z,24.20
2018-03-29T10:03:48.407Z,20.80
2018-03-29T10:06:15.910Z,24.77
2018-03-29T10:08:43.672Z,24.97
2018-03-29T10:11:11.158Z,25.27
2018-03-29T10:13:38.662Z,27.20
2018-03-29T10:16:06.471Z,27.40
2018-03-29T10:18:33.983Z,36.20
2018-03-29T10:21:02.872Z,33.87
2018-03-29T10:23:30.392Z,38.40
2018-03-29T10:25:57.972Z,36.50
2018-03-29T10:28:25.555Z,33.23
2018-03-29T10:30:53.128Z,36.93
2018-03-29T10:33:20.602Z,40.37
2018-03-29T10:35:48.929Z,39.73
2018-03-29T10:38:16.458Z,42.30
2018-03-29T10:40:44.675Z,43.30
2018-03-29T10:43:12.185Z,45.00
2018-03-29T10:45:39.735Z,47.60
2018-03-29T10:48:07.309Z,45.60
2018-03-29T10:50:35.669Z,44.93
2018-03-29T10:53:03.993Z,36.03
2018-03-29T10:55:31.560Z,35.30
2018-03-29T10:58:00.257Z,25.60
2018-03-29T11:00:27.762Z,15.10
2018-03-29T11:02:55.331Z,11.90
2018-03-29T11:05:22.882Z,14.10
2018-03-29T11:07:50.630Z,10.03
2018-03-29T11:10:18.176Z,9.37
2018-03-29T11:12:45.956Z,10.83
2018-03-29T11:15:14.186Z,12.17
2018-03-29T11:17:42.109Z,21.63
2018-03-29T11:20:11.198Z,17.73
2018-03-29T11:22:39.571Z,20.83
2018-03-29T11:25:07.410Z,25.70
2018-03-29T11:27:35.122Z,28.33
2018-03-29T11:30:03.640Z,27.10
2018-03-29T11:32:33.239Z,28.80
2018-03-29T11:35:00.961Z,36.37
2018-03-29T11:37:28.510Z,38.10
2018-03-29T11:39:57.440Z,42.50
2018-03-29T11:42:25.657Z,35.67
2018-03-29T11:44:53.170Z,39.43
2018-03-29T11:47:21.415Z,39.13
2018-03-29T11:49:48.915Z,40.77
2018-03-29T11:52:16.453Z,45.37
2018-03-29T11:54:44.709Z,44.10
2018-03-29T11:57:12.218Z,48.53
2018-03-29T11:59:39.723Z,46.30
2018-03-29T12:02:07.296Z,47.00
2018-03-29T12:04:34.796Z,41.60
2018-03-29T12:07:03.077Z,39.57
2018-03-29T12:09:31.342Z,40.77
2018-03-29T12:11:58.896Z,36.80
2018-03-29T12:14:26.386Z,35.77
2018-03-29T12:16:54.834Z,38.23
2018-03-29T12:19:23.071Z,39.40
2018-03-29T12:21:50.753Z,43.70
2018-03-29T12:24:18.269Z,43.10
2018-03-29T12:26:45.741Z,41.13
2018-03-29T12:29:14.023Z,30.17
2018-03-29T12:31:41.504Z,14.63
2018-03-29T12:34:09.029Z,10.80
2018-03-29T12:36:36.614Z,15.03
2018-03-29T12:39:04.875Z,11.47
2018-03-29T12:41:32.401Z,8.20
2018-03-29T12:43:59.884Z,6.60
2018-03-29T12:46:27.423Z,7.27
2018-03-29T12:48:54.871Z,8.70
2018-03-29T12:51:22.519Z,9.00
2018-03-29T12:53:51.546Z,9.10
2018-03-29T12:56:19.178Z,7.60
2018-03-29T12:58:46.730Z,7.67
2018-03-29T13:01:14.261Z,7.53
2018-03-29T13:03:41.766Z,9.63
2018-03-29T13:06:10.906Z,9.43
2018-03-29T13:08:38.454Z,10.70
2018-03-29T13:11:06.764Z,13.07
2018-03-29T13:13:34.315Z,13.43
2018-03-29T13:16:01.858Z,11.47
2018-03-29T13:18:29.481Z,10.23
2018-03-29T13:20:58.314Z,10.33
2018-03-29T13:23:25.861Z,10.80
2018-03-29T13:25:53.409Z,10.87
2018-03-29T13:28:20.903Z,14.97
2018-03-29T13:30:48.806Z,14.93
2018-03-29T13:33:16.265Z,18.50
2018-03-29T13:35:43.814Z,16.97
2018-03-29T13:38:11.334Z,13.23
2018-03-29T13:40:38.878Z,14.70
2018-03-29T13:43:06.536Z,12.70
2018-03-29T13:45:34.924Z,14.33
2018-03-29T13:48:02.406Z,18.03
2018-03-29T13:50:30.018Z,16.57
2018-03-29T13:52:57.549Z,15.40
2018-03-29T13:55:25.864Z,11.70
2018-03-29T13:57:54.061Z,12.93
2018-03-29T14:00:21.562Z,12.30
2018-03-29T14:02:49.220Z,10.67
2018-03-29T14:05:17.007Z,10.77
2018-03-29T14:07:46.115Z,6.80
2018-03-29T14:10:13.614Z,6.63
2018-03-29T14:12:41.300Z,7.07
2018-03-29T14:15:08.842Z,9.13
2018-03-29T14:17:36.592Z,8.30
2018-03-29T14:20:04.145Z,5.97
2018-03-29T14:22:33.210Z,6.70
2018-03-29T14:25:00.684Z,5.70
2018-03-29T14:27:28.292Z,5.03
2018-03-29T14:29:56.510Z,5.80
2018-03-29T14:32:25.217Z,5.03
2018-03-29T14:34:53.450Z,4.03
2018-03-29T14:37:20.974Z,2.93
2018-03-29T14:39:49.272Z,2.70
2018-03-29T14:42:17.576Z,2.93
2018-03-29T14:44:45.103Z,2.67
2018-03-29T14:47:13.384Z,2.63
2018-03-29T14:49:41.669Z,3.57
2018-03-29T14:52:09.941Z,2.93
2018-03-29T14:54:38.256Z,3.03
2018-03-29T14:57:05.729Z,3.80
2018-03-29T14:59:34.316Z,2.90
2018-03-29T15:02:01.814Z,3.50
2018-03-29T15:04:29.338Z,4.40
2018-03-29T15:06:56.864Z,4.23
2018-03-29T15:09:25.227Z,5.50
2018-03-29T15:11:53.244Z,9.57
2018-03-29T15:14:20.821Z,7.67
2018-03-29T15:16:48.403Z,8.37
2018-03-29T15:19:16.145Z,7.00
2018-03-29T15:21:43.651Z,7.53
2018-03-29T15:24:11.145Z,8.60
2018-03-29T15:26:39.422Z,9.63
2018-03-29T15:29:07.763Z,10.07
2018-03-29T15:31:35.268Z,9.27
2018-03-29T15:34:04.157Z,15.80
2018-03-29T15:36:32.473Z,9.60
2018-03-29T15:38:59.976Z,9.37
2018-03-29T15:41:27.465Z,11.47
2018-03-29T15:43:54.989Z,11.50
2018-03-29T15:46:22.522Z,10.67
2018-03-29T15:48:50.761Z,9.43
2018-03-29T15:51:18.320Z,12.20
2018-03-29T15:53:45.834Z,10.80
2018-03-29T15:56:13.608Z,10.60
2018-03-29T15:58:41.584Z,11.07
2018-03-29T16:01:09.040Z,10.33
2018-03-29T16:03:37.369Z,8.97
2018-03-29T16:06:04.878Z,9.23
2018-03-29T16:08:32.433Z,7.77
2018-03-29T16:10:59.913Z,18.03
2018-03-29T16:13:27.473Z,9.33
2018-03-29T16:15:55.110Z,10.57
2018-03-29T16:18:22.582Z,10.00
2018-03-29T16:20:50.885Z,10.00
2018-03-29T16:23:18.450Z,9.63
2018-03-29T16:25:46.004Z,9.60
2018-03-29T16:28:13.595Z,11.73
2018-03-29T16:30:41.152Z,10.40
2018-03-29T16:33:08.692Z,9.97
2018-03-29T16:35:37.044Z,10.33
2018-03-29T16:38:04.650Z,8.03
2018-03-29T16:40:32.927Z,10.20
2018-03-29T16:43:00.507Z,9.87
2018-03-29T16:45:28.283Z,10.00
2018-03-29T16:47:55.795Z,9.30
2018-03-29T16:50:23.307Z,9.47
2018-03-29T16:52:50.808Z,9.93
2018-03-29T16:55:18.349Z,11.20
2018-03-29T16:57:45.883Z,12.00
2018-03-29T17:00:13.457Z,12.03
2018-03-29T17:02:41.018Z,12.63
2018-03-29T17:05:09.987Z,11.87
2018-03-29T17:07:39.729Z,12.23
2018-03-29T17:10:07.209Z,11.97
2018-03-29T17:12:34.711Z,11.00
2018-03-29T17:15:02.240Z,11.80
2018-03-29T17:17:29.771Z,16.33
2018-03-29T17:19:57.299Z,11.87
2018-03-29T17:22:24.790Z,11.90
2018-03-29T17:24:53.120Z,16.20
2018-03-29T17:27:20.719Z,12.40
2018-03-29T17:29:48.236Z,10.87
2018-03-29T17:32:15.769Z,11.73
2018-03-29T17:34:44.421Z,12.63
2018-03-29T17:37:11.911Z,18.70
2018-03-29T17:39:40.513Z,13.03
2018-03-29T17:42:08.286Z,14.43
2018-03-29T17:44:35.752Z,13.30
2018-03-29T17:47:03.276Z,18.10
2018-03-29T17:49:30.775Z,13.63
2018-03-29T17:51:58.506Z,12.97
2018-03-29T17:54:26.023Z,12.90
2018-03-29T17:56:53.576Z,14.20
2018-03-29T17:59:21.327Z,12.33
2018-03-29T18:01:48.811Z,17.93
2018-03-29T18:04:16.296Z,16.90
2018-03-29T18:06:43.818Z,13.07
2018-03-29T18:09:12.138Z,15.77
2018-03-29T18:11:39.756Z,16.70
2018-03-29T18:14:19.418Z,22.40
2018-03-29T18:16:47.720Z,14.13
2018-03-29T18:19:15.222Z,13.57
2018-03-29T18:21:42.807Z,14.27
2018-03-29T18:24:10.299Z,15.20
2018-03-29T18:26:38.163Z,17.20
2018-03-29T18:29:05.781Z,25.27
2018-03-29T18:31:33.285Z,17.07
2018-03-29T18:34:01.566Z,25.10
2018-03-29T18:36:29.206Z,15.13
2018-03-29T18:38:57.430Z,13.40
2018-03-29T18:41:25.770Z,16.10
2018-03-29T18:43:54.088Z,17.80
2018-03-29T18:46:21.663Z,20.20
2018-03-29T18:48:49.211Z,19.60
2018-03-29T18:51:16.866Z,13.93
2018-03-29T18:53:44.346Z,17.30
2018-03-29T18:56:11.886Z,19.50
2018-03-29T18:58:40.200Z,15.07
2018-03-29T19:01:07.718Z,15.90
2018-03-29T19:03:35.838Z,14.90
2018-03-29T19:06:04.169Z,16.00
2018-03-29T19:08:31.649Z,14.00
2018-03-29T19:10:59.904Z,18.27
2018-03-29T19:13:27.460Z,19.70
2018-03-29T19:15:55.028Z,18.77
2018-03-29T19:18:22.554Z,21.10
2018-03-29T19:20:50.066Z,22.40
2018-03-29T19:23:17.596Z,18.47
2018-03-29T19:25:45.060Z,19.67
2018-03-29T19:28:12.675Z,24.53
2018-03-29T19:30:41.009Z,19.50
2018-03-29T19:33:09.260Z,21.70
2018-03-29T19:35:37.578Z,27.73
2018-03-29T19:38:05.142Z,25.50
2018-03-29T19:40:33.436Z,20.97
2018-03-29T19:43:01.220Z,23.30
2018-03-29T19:45:29.569Z,25.70
2018-03-29T19:47:57.864Z,25.20
2018-03-29T19:50:25.397Z,22.60
2018-03-29T19:52:52.940Z,21.90
2018-03-29T19:55:28.536Z,24.33
2018-03-29T19:57:56.169Z,30.33
2018-03-29T20:00:23.687Z,26.70
2018-03-29T20:02:51.232Z,25.40
2018-03-29T20:05:18.800Z,26.23
2018-03-29T20:07:46.344Z,27.87
2018-03-29T20:10:13.933Z,28.00
2018-03-29T20:12:41.431Z,32.43
2018-03-29T20:15:09.706Z,24.97
2018-03-29T20:17:38.233Z,27.37
2018-03-29T20:20:05.781Z,30.23
2018-03-29T20:22:33.290Z,26.93
2018-03-29T20:25:00.825Z,30.00
2018-03-29T20:27:28.605Z,31.20
2018-03-29T20:29:56.161Z,26.07
2018-03-29T20:32:24.432Z,24.40
2018-03-29T20:34:52.039Z,25.37
2018-03-29T20:37:19.584Z,27.83
2018-03-29T20:39:47.568Z,25.07
2018-03-29T20:42:15.064Z,28.60
2018-03-29T20:44:42.500Z,22.03
2018-03-29T20:47:10.735Z,24.53
2018-03-29T20:49:38.223Z,23.47
2018-03-29T20:52:05.698Z,22.47
2018-03-29T20:54:33.215Z,28.50
2018-03-29T20:57:00.774Z,27.87
2018-03-29T20:59:28.281Z,25.33
2018-03-29T21:01:56.193Z,32.13
2018-03-29T21:04:23.702Z,25.50
2018-03-29T21:06:51.266Z,32.60
2018-03-29T21:09:18.933Z,27.80
2018-03-29T21:11:47.282Z,24.73
2018-03-29T21:14:14.753Z,25.70
2018-03-29T21:16:42.259Z,28.37
2018-03-29T21:19:09.721Z,25.43
2018-03-29T21:21:37.216Z,31.80
2018-03-29T21:24:04.707Z,24.87
2018-03-29T21:26:32.328Z,27.33
2018-03-29T21:28:59.882Z,28.37
2018-03-29T21:31:27.418Z,29.77
2018-03-29T21:33:55.625Z,26.63
2018-03-29T21:36:23.148Z,29.57
2018-03-29T21:38:51.439Z,30.07
2018-03-29T21:41:19.662Z,29.43
2018-03-29T21:43:47.158Z,25.97
2018-03-29T21:46:15.459Z,26.20
2018-03-29T21:48:42.933Z,32.17
2018-03-29T21:51:11.736Z,29.10
2018-03-29T21:53:39.307Z,29.03
2018-03-29T21:56:07.592Z,27.60
2018-03-29T21:58:35.248Z,26.97
2018-03-29T22:01:02.742Z,28.53
2018-03-29T22:03:32.704Z,29.30
2018-03-29T22:06:00.282Z,36.93
2018-03-29T22:08:27.863Z,27.07
2018-03-29T22:10:55.681Z,32.13
2018-03-29T22:13:25.219Z,29.50
2018-03-29T22:15:52.875Z,31.50
2018-03-29T22:18:20.560Z,24.57
2018-03-29T22:20:48.289Z,40.73
2018-03-29T22:23:15.796Z,25.93
2018-03-29T22:25:45.332Z,32.60
2018-03-29T22:28:12.832Z,27.47
2018-03-29T22:30:40.362Z,26.43
2018-03-29T22:33:10.130Z,29.53
2018-03-29T22:35:39.538Z,30.43
2018-03-29T22:38:08.430Z,34.03
2018-03-29T22:40:37.352Z,32.33
2018-03-29T22:43:09.042Z,27.00
2018-03-29T22:45:36.930Z,27.77
2018-03-29T22:48:04.527Z,32.97
2018-03-29T22:50:32.809Z,23.90
2018-03-29T22:53:01.048Z,31.00
2018-03-29T22:55:29.979Z,28.17
2018-03-29T22:57:57.495Z,28.10
2018-03-29T23:00:26.644Z,27.93
2018-03-29T23:02:54.161Z,30.17
2018-03-29T23:05:21.706Z,25.10
2018-03-29T23:07:49.935Z,24.97
2018-03-29T23:10:17.440Z,27.73
2018-03-29T23:12:45.019Z,27.33
2018-03-29T23:15:12.523Z,28.40
2018-03-29T23:17:40.311Z,29.03
2018-03-29T23:20:07.841Z,27.33
2018-03-29T23:22:35.373Z,23.43
2018-03-29T23:25:04.229Z,29.83
2018-03-29T23:27:32.488Z,25.17
2018-03-29T23:29:59.991Z,23.73
2018-03-29T23:32:27.517Z,22.63
2018-03-29T23:34:55.728Z,25.87
2018-03-29T23:37:24.791Z,23.53
2018-03-29T23:39:52.302Z,28.37
2018-03-29T23:42:19.866Z,26.63
2018-03-29T23:44:47.347Z,24.67
2018-03-29T23:47:15.643Z,25.53
2018-03-29T23:49:43.965Z,27.03
2018-03-29T23:52:11.468Z,23.93
2018-03-29T23:54:39.741Z,26.00
2018-03-29T23:57:07.245Z,22.30
2018-03-29T23:59:35.548Z,25.27
